Time;durP1;ratioP1;P1;durP2;ratioP2;P2;SDS_P1;SDS_P2;PMS_P1;PMS_P2;Temp;Humidity;BMP_temperature;BMP_pressure;BME280_temperature;BME280_humidity;BME280_pressure;Samples;Min_cycle;Max_cycle;Signal;HPM_P1;HPM_P2
2023/05/07 00:00:11;;;;;;;21.50;14.10;;;;;;;;;;5013340;28;20018;-54
2023/05/07 00:02:52;;;;;;;22.27;14.80;;;;;;;;;;5011918;28;20033;-52
2023/05/07 00:05:18;;;;;;;18.67;13.88;;;;;;;;;;5012961;28;20022;-55
2023/05/07 00:07:44;;;;;;;19.15;13.70;;;;;;;;;;5012992;28;20087;-56
2023/05/07 00:10:12;;;;;;;20.77;14.02;;;;;;;;;;5012817;28;20025;-53
2023/05/07 00:12:38;;;;;;;19.75;13.60;;;;;;;;;;5012901;28;20527;-57
2023/05/07 00:15:04;;;;;;;18.23;13.40;;;;;;;;;;5012992;28;20133;-56
2023/05/07 00:17:30;;;;;;;19.10;13.30;;;;;;;;;;5013047;28;20056;-58
2023/05/07 00:19:56;;;;;;;18.70;13.18;;;;;;;;;;5013044;28;20076;-56
2023/05/07 00:25:26;;;;;;;18.55;13.50;;;;;;;;;;5012735;28;20133;-54
2023/05/07 00:27:52;;;;;;;18.90;13.05;;;;;;;;;;5012650;28;20141;-56
2023/05/07 00:30:18;;;;;;;20.00;13.32;;;;;;;;;;5011487;28;20057;-57
2023/05/07 00:33:15;;;;;;;21.40;14.00;;;;;;;;;;5012745;28;20029;-56
2023/05/07 00:35:42;;;;;;;20.70;13.45;;;;;;;;;;5011080;28;20022;-57
2023/05/07 00:38:08;;;;;;;17.65;12.98;;;;;;;;;;5012561;28;20027;-56
2023/05/07 00:40:34;;;;;;;20.35;13.15;;;;;;;;;;5012237;28;20037;-52
2023/05/07 00:43:00;;;;;;;19.10;13.07;;;;;;;;;;5012426;28;20378;-56
2023/05/07 00:45:27;;;;;;;19.45;13.73;;;;;;;;;;5011979;28;20029;-53
2023/05/07 00:47:58;;;;;;;20.42;13.43;;;;;;;;;;5012404;28;20032;-58
2023/05/07 00:50:24;;;;;;;20.35;13.23;;;;;;;;;;5010876;28;20040;-58
2023/05/07 00:53:12;;;;;;;18.98;13.13;;;;;;;;;;5012348;28;20018;-58
2023/05/07 00:55:38;;;;;;;17.95;12.60;;;;;;;;;;5012234;28;20026;-60
2023/05/07 00:58:04;;;;;;;18.70;13.10;;;;;;;;;;5012199;28;20044;-55
2023/05/07 01:00:30;;;;;;;18.90;13.98;;;;;;;;;;5010231;28;20470;-56
2023/05/07 01:02:56;;;;;;;20.38;13.90;;;;;;;;;;5012127;28;20113;-56
2023/05/07 01:05:23;;;;;;;18.95;13.77;;;;;;;;;;5010623;28;20033;-54
2023/05/07 01:07:50;;;;;;;19.67;14.00;;;;;;;;;;5012126;28;20100;-55
2023/05/07 01:10:16;;;;;;;20.05;13.70;;;;;;;;;;5010689;28;20022;-54
2023/05/07 01:13:07;;;;;;;19.20;14.20;;;;;;;;;;5010431;28;20037;-57
2023/05/07 01:15:33;;;;;;;21.00;14.68;;;;;;;;;;5011636;28;20477;-55
2023/05/07 01:18:00;;;;;;;21.08;15.13;;;;;;;;;;5010639;28;20117;-55
2023/05/07 01:20:26;;;;;;;22.90;16.77;;;;;;;;;;5011804;28;20049;-53
2023/05/07 01:22:52;;;;;;;21.90;16.75;;;;;;;;;;5011939;28;20026;-55
2023/05/07 01:25:18;;;;;;;25.90;17.08;;;;;;;;;;5011660;28;20018;-57
2023/05/07 01:27:44;;;;;;;24.13;18.15;;;;;;;;;;5012215;28;20026;-55
2023/05/07 01:30:10;;;;;;;28.95;22.58;;;;;;;;;;5012441;28;20075;-57
2023/05/07 01:32:39;;;;;;;23.08;17.95;;;;;;;;;;5012841;28;20168;-59
2023/05/07 01:35:08;;;;;;;23.90;18.48;;;;;;;;;;5012347;28;20446;-55
2023/05/07 01:37:34;;;;;;;;;;;;;;;;;;5012796;28;20030;-55
2023/05/07 01:40:00;;;;;;;25.65;18.85;;;;;;;;;;5012812;28;19911;-57
2023/05/07 01:42:26;;;;;;;24.35;19.00;;;;;;;;;;5012667;28;20025;-58
2023/05/07 01:44:52;;;;;;;27.42;20.90;;;;;;;;;;5012470;28;20074;-56
2023/05/07 01:47:18;;;;;;;28.15;21.92;;;;;;;;;;5012461;28;20037;-59
2023/05/07 01:49:44;;;;;;;27.83;22.15;;;;;;;;;;5012790;28;20030;-59
2023/05/07 01:55:14;;;;;;;26.13;21.10;;;;;;;;;;5012852;28;20445;-55
2023/05/07 01:57:40;;;;;;;27.02;20.02;;;;;;;;;;5013678;28;20470;-58
2023/05/07 02:00:06;;;;;;;32.10;24.27;;;;;;;;;;5014146;28;20478;-54
2023/05/07 02:02:41;;;;;;;25.15;20.38;;;;;;;;;;5012640;28;20040;-55
2023/05/07 02:05:07;;;;;;;30.13;21.05;;;;;;;;;;5012554;28;20441;-58
2023/05/07 02:07:33;;;;;;;27.83;21.95;;;;;;;;;;5012752;28;20038;-56
2023/05/07 02:09:59;;;;;;;29.08;20.65;;;;;;;;;;5013394;28;20084;-55
2023/05/07 02:12:25;;;;;;;26.63;22.13;;;;;;;;;;5016429;28;20044;-53
2023/05/07 02:14:51;;;;;;;25.75;20.70;;;;;;;;;;5014646;28;20022;-57
2023/05/07 02:17:17;;;;;;;27.45;21.00;;;;;;;;;;5015341;28;20091;-56
2023/05/07 02:19:43;;;;;;;29.70;22.55;;;;;;;;;;5015183;28;20022;-58
2023/05/07 02:25:12;;;;;;;28.73;21.63;;;;;;;;;;5015603;28;20021;-57
2023/05/07 02:27:38;;;;;;;30.27;22.88;;;;;;;;;;5015572;28;20034;-55
2023/05/07 02:30:05;;;;;;;30.98;23.10;;;;;;;;;;5015262;28;20034;-55
2023/05/07 02:32:33;;;;;;;29.10;22.50;;;;;;;;;;5015716;28;20121;-56
2023/05/07 02:34:59;;;;;;;30.92;24.05;;;;;;;;;;5015527;28;20021;-56
2023/05/07 02:37:25;;;;;;;31.38;24.67;;;;;;;;;;5014151;28;20450;-53
2023/05/07 02:39:51;;;;;;;29.73;22.80;;;;;;;;;;5014973;28;20033;-57
2023/05/07 02:42:33;;;;;;;31.25;23.70;;;;;;;;;;5014644;28;20096;-57
2023/05/07 02:44:59;;;;;;;31.30;22.42;;;;;;;;;;5013135;28;20398;-56
2023/05/07 02:47:28;;;;;;;29.35;23.42;;;;;;;;;;5014947;28;20021;-56
2023/05/07 02:49:54;;;;;;;34.13;25.88;;;;;;;;;;5015134;28;20022;-55
2023/05/07 02:52:21;;;;;;;30.42;24.65;;;;;;;;;;5014696;28;20026;-57
2023/05/07 02:55:02;;;;;;;29.58;24.05;;;;;;;;;;5014736;28;20028;-56
2023/05/07 02:57:28;;;;;;;30.58;23.55;;;;;;;;;;5015163;28;20413;-57
2023/05/07 02:59:54;;;;;;;31.75;25.02;;;;;;;;;;5013426;28;20489;-57
2023/05/07 03:02:57;;;;;;;30.40;24.25;;;;;;;;;;5014491;28;20334;-56
2023/05/07 03:05:23;;;;;;;33.88;25.58;;;;;;;;;;5014171;28;20022;-56
2023/05/07 03:07:49;;;;;;;31.35;24.90;;;;;;;;;;5013061;28;20022;-58
2023/05/07 03:10:15;;;;;;;30.42;24.27;;;;;;;;;;5013318;28;20061;-57
2023/05/07 03:12:41;;;;;;;31.98;24.33;;;;;;;;;;5013677;28;20022;-58
2023/05/07 03:15:08;;;;;;;30.73;25.10;;;;;;;;;;5013323;28;20445;-57
2023/05/07 03:17:34;;;;;;;33.55;24.77;;;;;;;;;;5013118;28;20029;-56
2023/05/07 03:20:00;;;;;;;30.20;23.48;;;;;;;;;;5014260;28;20454;-56
2023/05/07 03:22:26;;;;;;;29.60;23.75;;;;;;;;;;5012258;28;20034;-58
2023/05/07 03:24:52;;;;;;;31.77;24.55;;;;;;;;;;5014012;28;20045;-57
2023/05/07 03:27:18;;;;;;;32.58;25.13;;;;;;;;;;5013848;28;20024;-56
2023/05/07 03:29:44;;;;;;;31.05;23.42;;;;;;;;;;5012608;28;20603;-53
2023/05/07 03:32:22;;;;;;;29.33;23.73;;;;;;;;;;5012561;28;20056;-54
2023/05/07 03:34:48;;;;;;;30.50;22.95;;;;;;;;;;5013480;28;20025;-55
2023/05/07 03:37:14;;;;;;;30.00;24.02;;;;;;;;;;5012225;28;20112;-57
2023/05/07 03:39:40;;;;;;;30.90;22.75;;;;;;;;;;5012544;28;20018;-57
2023/05/07 03:42:06;;;;;;;30.77;23.85;;;;;;;;;;5012183;28;20083;-55
2023/05/07 03:44:33;;;;;;;31.75;25.30;;;;;;;;;;5013146;28;20061;-56
2023/05/07 03:46:59;;;;;;;29.67;22.42;;;;;;;;;;5013368;28;20022;-55
2023/05/07 03:49:25;;;;;;;31.55;24.00;;;;;;;;;;5012462;28;20037;-55
2023/05/07 03:54:54;;;;;;;35.42;26.52;;;;;;;;;;4999970;28;20068;-54
2023/05/07 03:57:20;;;;;;;29.90;24.30;;;;;;;;;;5013438;28;20025;-55
2023/05/07 03:59:46;;;;;;;31.92;25.48;;;;;;;;;;5013234;28;20084;-56
2023/05/07 04:02:12;;;;;;;33.78;24.33;;;;;;;;;;5013198;28;20018;-57
2023/05/07 04:04:38;;;;;;;30.45;25.30;;;;;;;;;;5011426;28;20026;-56
2023/05/07 04:07:20;;;;;;;30.75;24.90;;;;;;;;;;5011559;28;20188;-57
2023/05/07 04:09:46;;;;;;;31.67;24.85;;;;;;;;;;5011766;28;20579;-58
2023/05/07 04:12:12;;;;;;;31.20;24.73;;;;;;;;;;5012894;28;20026;-53
2023/05/07 04:14:37;;;;;;;32.50;23.35;;;;;;;;;;5011477;28;20018;-55
2023/05/07 04:17:19;;;;;;;37.38;25.63;;;;;;;;;;5011663;28;20486;-53
2023/05/07 04:19:45;;;;;;;30.15;23.52;;;;;;;;;;5012891;28;20026;-56
2023/05/07 04:22:11;;;;;;;31.50;23.52;;;;;;;;;;5012552;28;20026;-56
2023/05/07 04:24:37;;;;;;;31.00;24.10;;;;;;;;;;5011129;28;20076;-53
2023/05/07 04:27:16;;;;;;;30.60;23.67;;;;;;;;;;5012834;28;20113;-58
2023/05/07 04:29:42;;;;;;;32.90;24.90;;;;;;;;;;5011624;28;20026;-56
2023/05/07 04:32:09;;;;;;;30.38;24.02;;;;;;;;;;5011300;28;20026;-56
2023/05/07 04:34:35;;;;;;;31.17;25.30;;;;;;;;;;5011908;28;20034;-53
2023/05/07 04:37:13;;;;;;;31.20;24.92;;;;;;;;;;5012562;28;20037;-54
2023/05/07 04:39:39;;;;;;;38.08;29.85;;;;;;;;;;5012790;28;20385;-58
2023/05/07 04:42:08;;;;;;;32.58;24.50;;;;;;;;;;5012546;28;20030;-55
2023/05/07 04:44:34;;;;;;;29.23;22.92;;;;;;;;;;5013473;28;20501;-53
2023/05/07 04:50:04;;;;;;;28.95;24.08;;;;;;;;;;5009730;28;20052;-55
2023/05/07 04:52:31;;;;;;;30.67;23.33;;;;;;;;;;5012385;28;20057;-54
2023/05/07 04:54:57;;;;;;;28.52;23.50;;;;;;;;;;5012470;28;20033;-54
2023/05/07 04:57:26;;;;;;;31.40;24.17;;;;;;;;;;5012384;28;20022;-55
2023/05/07 04:59:52;;;;;;;29.95;24.65;;;;;;;;;;5011013;28;20026;-57
2023/05/07 05:02:18;;;;;;;31.20;23.00;;;;;;;;;;5011933;28;20030;-53
2023/05/07 05:04:44;;;;;;;31.98;23.38;;;;;;;;;;5010840;28;20044;-56
2023/05/07 05:07:10;;;;;;;29.63;23.42;;;;;;;;;;5012157;28;20041;-58
2023/05/07 05:09:36;;;;;;;31.63;23.20;;;;;;;;;;5012199;28;20030;-55
2023/05/07 05:12:30;;;;;;;31.75;24.67;;;;;;;;;;5012016;28;20033;-56
2023/05/07 05:14:56;;;;;;;30.80;24.17;;;;;;;;;;5010639;28;20037;-57
2023/05/07 05:17:22;;;;;;;32.80;24.33;;;;;;;;;;5012413;28;20482;-57
2023/05/07 05:19:48;;;;;;;29.95;22.63;;;;;;;;;;5012195;28;20022;-53
2023/05/07 05:22:15;;;;;;;30.13;22.60;;;;;;;;;;5010761;28;20429;-57
2023/05/07 05:24:41;;;;;;;30.58;23.63;;;;;;;;;;5011758;28;20030;-55
2023/05/07 05:27:07;;;;;;;31.17;24.27;;;;;;;;;;5012255;28;20110;-55
2023/05/07 05:29:32;;;;;;;31.42;22.77;;;;;;;;;;5013330;28;20034;-53
2023/05/07 05:31:59;;;;;;;29.77;22.83;;;;;;;;;;5011855;28;20033;-57
2023/05/07 05:34:25;;;;;;;28.92;22.60;;;;;;;;;;5012083;28;20014;-55
2023/05/07 05:36:51;;;;;;;28.52;22.88;;;;;;;;;;5012080;28;20489;-52
2023/05/07 05:39:17;;;;;;;30.75;22.58;;;;;;;;;;5012075;28;20045;-56
2023/05/07 05:41:43;;;;;;;29.13;22.70;;;;;;;;;;5011918;28;20034;-51
2023/05/07 05:44:09;;;;;;;31.17;23.65;;;;;;;;;;5011634;28;20109;-56
2023/05/07 05:46:35;;;;;;;30.67;24.02;;;;;;;;;;5014566;28;20065;-56
2023/05/07 05:49:01;;;;;;;29.98;23.25;;;;;;;;;;5013820;28;20072;-53
2023/05/07 05:51:27;;;;;;;33.88;26.83;;;;;;;;;;5031306;22;20039;-61
2023/05/07 05:53:53;;;;;;;27.05;22.17;;;;;;;;;;4995263;28;20022;-62
2023/05/07 05:56:25;;;;;;;29.27;22.63;;;;;;;;;;4995795;28;20026;-64
2023/05/07 05:58:51;;;;;;;27.42;22.02;;;;;;;;;;4996195;28;20020;-64
2023/05/07 06:01:18;;;;;;;28.23;22.45;;;;;;;;;;5001207;28;20022;-63
2023/05/07 06:03:44;;;;;;;30.83;24.48;;;;;;;;;;4998144;28;20036;-64
2023/05/07 06:06:26;;;;;;;30.23;23.35;;;;;;;;;;5015473;28;20050;-63
2023/05/07 06:08:52;;;;;;;29.48;22.73;;;;;;;;;;5015428;28;20025;-64
2023/05/07 06:11:30;;;;;;;29.13;23.08;;;;;;;;;;4998016;28;20026;-64
2023/05/07 06:13:56;;;;;;;31.77;25.00;;;;;;;;;;4997926;28;20018;-63
2023/05/07 06:16:22;;;;;;;35.80;23.63;;;;;;;;;;4997946;28;20379;-63
2023/05/07 06:18:48;;;;;;;32.17;23.80;;;;;;;;;;5015247;28;20021;-63
2023/05/07 06:21:15;;;;;;;31.30;25.30;;;;;;;;;;4998110;28;20057;-64
2023/05/07 06:23:41;;;;;;;30.08;23.52;;;;;;;;;;4999041;28;20057;-64
2023/05/07 06:26:07;;;;;;;31.75;22.63;;;;;;;;;;4996172;28;20077;-62
2023/05/07 06:28:36;;;;;;;34.63;24.60;;;;;;;;;;4996417;28;20080;-64
2023/05/07 06:31:26;;;;;;;32.88;23.05;;;;;;;;;;4995834;28;20137;-64
2023/05/07 06:33:52;;;;;;;32.15;24.42;;;;;;;;;;4995645;28;20030;-62
2023/05/07 06:36:18;;;;;;;30.45;23.55;;;;;;;;;;4995619;28;20026;-64
2023/05/07 06:38:44;;;;;;;32.38;25.20;;;;;;;;;;4995906;28;20025;-63
2023/05/07 06:41:38;;;;;;;33.92;24.08;;;;;;;;;;4996369;28;20049;-64
2023/05/07 06:44:05;;;;;;;30.10;24.05;;;;;;;;;;4995919;28;20034;-64
2023/05/07 06:46:31;;;;;;;31.77;23.80;;;;;;;;;;4996072;28;20122;-64
2023/05/07 06:48:57;;;;;;;32.67;24.52;;;;;;;;;;4998988;28;20026;-64
2023/05/07 06:51:51;;;;;;;29.88;24.40;;;;;;;;;;5015100;28;20056;-62
2023/05/07 06:54:17;;;;;;;29.42;23.70;;;;;;;;;;5014953;28;20040;-63
2023/05/07 06:56:43;;;;;;;27.58;22.77;;;;;;;;;;5014449;28;20025;-64
2023/05/07 06:59:09;;;;;;;29.52;23.48;;;;;;;;;;5014505;28;20386;-63
2023/05/07 07:01:35;;;;;;;30.10;23.73;;;;;;;;;;5012037;28;20038;-63
2023/05/07 07:04:01;;;;;;;29.73;22.77;;;;;;;;;;5008200;28;20121;-63
2023/05/07 07:06:27;;;;;;;32.65;24.50;;;;;;;;;;5014929;28;20077;-62
2023/05/07 07:08:53;;;;;;;28.45;23.13;;;;;;;;;;4997209;28;20560;-63
2023/05/07 07:11:18;;;;;;;30.00;22.13;;;;;;;;;;5014357;28;20025;-63
2023/05/07 07:13:45;;;;;;;31.17;24.27;;;;;;;;;;5014496;28;20045;-61
2023/05/07 07:16:11;;;;;;;34.85;24.10;;;;;;;;;;4995518;28;20029;-60
2023/05/07 07:18:37;;;;;;;31.38;23.20;;;;;;;;;;5013249;28;20025;-62
2023/05/07 07:21:15;;;;;;;29.50;23.55;;;;;;;;;;5013076;28;20417;-61
2023/05/07 07:23:41;;;;;;;32.60;23.27;;;;;;;;;;5004774;28;20031;-61
2023/05/07 07:26:07;;;;;;;30.95;23.15;;;;;;;;;;4975674;28;20042;-61
2023/05/07 07:28:33;;;;;;;28.95;23.13;;;;;;;;;;4993339;28;20034;-61
2023/05/07 07:30:59;;;;;;;31.02;24.65;;;;;;;;;;4993240;28;20382;-61
2023/05/07 07:33:25;;;;;;;28.90;22.13;;;;;;;;;;4993150;28;20386;-61
2023/05/07 07:35:51;;;;;;;30.00;22.90;;;;;;;;;;4976723;28;20019;-63
2023/05/07 07:38:17;;;;;;;31.52;24.40;;;;;;;;;;4994588;28;20056;-63
2023/05/07 07:40:44;;;;;;;34.00;24.48;;;;;;;;;;4995098;28;20455;-63
2023/05/07 07:43:09;;;;;;;29.73;23.75;;;;;;;;;;4977531;28;20506;-63
2023/05/07 07:45:35;;;;;;;30.40;22.55;;;;;;;;;;4993504;28;20026;-63
2023/05/07 07:48:01;;;;;;;32.15;23.83;;;;;;;;;;4994782;28;20030;-63
2023/05/07 07:50:27;;;;;;;31.77;23.67;;;;;;;;;;4987347;28;20049;-63
2023/05/07 07:52:53;;;;;;;31.85;23.95;;;;;;;;;;5014760;28;20056;-63
2023/05/07 07:55:22;;;;;;;30.40;24.73;;;;;;;;;;5013712;28;20037;-63
2023/05/07 07:57:48;;;;;;;28.95;21.67;;;;;;;;;;5015318;28;20483;-63
2023/05/07 08:00:15;;;;;;;30.40;23.33;;;;;;;;;;5014371;28;20026;-63
2023/05/07 08:02:41;;;;;;;30.25;22.25;;;;;;;;;;5014670;28;20129;-64
2023/05/07 08:05:07;;;;;;;31.90;25.45;;;;;;;;;;5014207;28;20478;-65
2023/05/07 08:07:33;;;;;;;29.20;22.73;;;;;;;;;;4998065;28;20076;-63
2023/05/07 08:09:59;;;;;;;28.65;22.52;;;;;;;;;;5015064;28;20038;-63
2023/05/07 08:12:26;;;;;;;29.48;21.88;;;;;;;;;;4995496;28;20465;-53
2023/05/07 08:14:52;;;;;;;28.08;22.52;;;;;;;;;;5013235;28;20076;-54
2023/05/07 08:17:18;;;;;;;31.45;22.77;;;;;;;;;;5013356;28;20125;-56
2023/05/07 08:19:44;;;;;;;28.25;22.15;;;;;;;;;;5013741;28;20089;-54
2023/05/07 08:22:11;;;;;;;32.08;23.73;;;;;;;;;;4996300;28;20030;-55
2023/05/07 08:24:37;;;;;;;29.23;23.02;;;;;;;;;;5016020;28;20029;-54
2023/05/07 08:27:03;;;;;;;29.65;23.38;;;;;;;;;;5033608;28;20044;-55
2023/05/07 08:29:29;;;;;;;29.25;22.23;;;;;;;;;;5015814;28;20029;-53
2023/05/07 08:32:32;;;;;;;31.13;22.92;;;;;;;;;;5032365;28;20392;-52
2023/05/07 08:34:58;;;;;;;28.67;21.88;;;;;;;;;;5031589;28;20040;-53
2023/05/07 08:37:24;;;;;;;28.13;22.27;;;;;;;;;;5013602;28;20025;-54
2023/05/07 08:39:50;;;;;;;29.83;22.70;;;;;;;;;;5031585;28;20022;-51
2023/05/07 08:42:17;;;;;;;27.55;21.25;;;;;;;;;;5031016;28;20022;-61
2023/05/07 08:44:46;;;;;;;30.25;23.27;;;;;;;;;;5029564;28;20032;-62
2023/05/07 08:47:12;;;;;;;28.48;22.95;;;;;;;;;;5013156;28;20037;-61
2023/05/07 08:49:39;;;;;;;30.38;23.23;;;;;;;;;;5027857;28;20049;-62
2023/05/07 08:52:05;;;;;;;29.33;22.52;;;;;;;;;;4992698;28;20040;-60
2023/05/07 08:54:31;;;;;;;29.27;21.95;;;;;;;;;;5010397;28;20028;-61
2023/05/07 08:56:57;;;;;;;27.55;21.38;;;;;;;;;;5010705;28;20018;-62
2023/05/07 08:59:23;;;;;;;30.02;23.27;;;;;;;;;;5010504;28;20434;-61
2023/05/07 09:02:10;;;;;;;29.42;23.27;;;;;;;;;;5010472;28;20105;-61
2023/05/07 09:04:36;;;;;;;27.70;22.30;;;;;;;;;;4992715;28;20217;-61
2023/05/07 09:07:05;;;;;;;29.30;22.50;;;;;;;;;;4992746;28;20435;-60
2023/05/07 09:09:32;;;;;;;27.63;22.58;;;;;;;;;;4993030;28;20022;-61
2023/05/07 09:15:02;;;;;;;31.33;23.10;;;;;;;;;;5010644;28;20032;-60
2023/05/07 09:17:29;;;;;;;29.58;23.17;;;;;;;;;;5010816;28;20021;-61
2023/05/07 09:19:55;;;;;;;30.27;23.50;;;;;;;;;;5010134;28;20026;-61
2023/05/07 09:22:52;;;;;;;28.15;22.33;;;;;;;;;;5010300;28;20030;-62
2023/05/07 09:25:27;;;;;;;27.23;21.63;;;;;;;;;;5010306;28;20160;-60
2023/05/07 09:27:54;;;;;;;29.02;23.13;;;;;;;;;;4992787;28;20026;-59
2023/05/07 09:30:20;;;;;;;27.70;22.75;;;;;;;;;;5010301;28;20519;-61
2023/05/07 09:33:04;;;;;;;29.27;23.65;;;;;;;;;;5010421;28;20029;-63
2023/05/07 09:35:30;;;;;;;27.48;21.55;;;;;;;;;;5010099;28;20022;-60
2023/05/07 09:37:58;;;;;;;28.15;21.50;;;;;;;;;;4992637;28;20030;-61
2023/05/07 09:40:25;;;;;;;28.83;22.13;;;;;;;;;;5010164;28;20056;-63
2023/05/07 09:42:51;;;;;;;29.10;22.00;;;;;;;;;;4992615;28;20033;-62
2023/05/07 09:45:22;;;;;;;27.55;21.63;;;;;;;;;;5010123;28;20409;-61
2023/05/07 09:47:49;;;;;;;25.25;20.75;;;;;;;;;;4992622;28;20057;-61
2023/05/07 09:50:15;;;;;;;27.83;21.92;;;;;;;;;;5009995;28;20049;-60
2023/05/07 09:52:42;;;;;;;27.60;20.95;;;;;;;;;;4992044;28;20164;-62
2023/05/07 09:55:08;;;;;;;27.25;21.55;;;;;;;;;;5009172;28;20490;-61
2023/05/07 09:57:35;;;;;;;26.98;21.20;;;;;;;;;;5009946;28;20062;-62
2023/05/07 10:00:04;;;;;;;26.60;20.63;;;;;;;;;;5010166;28;20449;-61
2023/05/07 10:02:31;;;;;;;27.63;21.27;;;;;;;;;;5010324;28;20052;-61
2023/05/07 10:04:58;;;;;;;26.65;20.52;;;;;;;;;;5009855;28;20079;-61
2023/05/07 10:10:34;;;;;;;27.48;21.70;;;;;;;;;;5010099;28;20120;-62
2023/05/07 10:13:01;;;;;;;26.77;20.77;;;;;;;;;;5009808;28;20057;-61
2023/05/07 10:15:28;;;;;;;26.58;20.40;;;;;;;;;;5009613;28;20021;-61
2023/05/07 10:17:55;;;;;;;26.75;22.25;;;;;;;;;;5010110;28;20533;-62
2023/05/07 10:20:21;;;;;;;26.17;21.40;;;;;;;;;;5009798;28;20018;-61
2023/05/07 10:22:48;;;;;;;28.45;21.42;;;;;;;;;;5009588;28;20470;-62
2023/05/07 10:25:28;;;;;;;26.65;21.58;;;;;;;;;;5009600;28;20026;-62
2023/05/07 10:27:55;;;;;;;26.83;21.38;;;;;;;;;;5009758;28;20133;-62
2023/05/07 10:30:48;;;;;;;25.77;20.75;;;;;;;;;;5009872;28;20389;-60
2023/05/07 10:33:15;;;;;;;25.60;20.55;;;;;;;;;;5010423;28;20046;-60
2023/05/07 10:35:43;;;;;;;29.85;22.80;;;;;;;;;;5013052;28;20073;-63
2023/05/07 10:38:09;;;;;;;25.90;20.83;;;;;;;;;;5013305;28;20041;-61
2023/05/07 10:40:35;;;;;;;24.10;20.75;;;;;;;;;;5013282;28;20044;-62
2023/05/07 10:43:05;;;;;;;25.67;20.15;;;;;;;;;;4995142;28;20040;-62
2023/05/07 10:45:32;;;;;;;26.27;21.27;;;;;;;;;;5005722;28;20795;-61
2023/05/07 10:48:10;;;;;;;25.38;19.40;;;;;;;;;;5002962;28;20026;-60
2023/05/07 10:50:36;;;;;;;24.17;19.27;;;;;;;;;;4986672;28;20029;-61
2023/05/07 10:53:18;;;;;;;24.77;20.67;;;;;;;;;;5003217;28;20108;-60
2023/05/07 10:55:51;;;;;;;24.20;19.13;;;;;;;;;;5000784;28;20034;-62
2023/05/07 10:58:27;;;;;;;26.95;18.73;;;;;;;;;;5008128;28;20157;-62
2023/05/07 11:00:58;;;;;;;22.90;18.65;;;;;;;;;;5005591;28;20034;-61
2023/05/07 11:03:24;;;;;;;22.77;18.60;;;;;;;;;;5010482;28;20490;-61
2023/05/07 11:06:10;;;;;;;24.63;19.13;;;;;;;;;;5010572;28;20026;-62
2023/05/07 11:08:55;;;;;;;25.00;18.50;;;;;;;;;;5008513;28;20037;-62
2023/05/07 11:11:40;;;;;;;24.40;18.55;;;;;;;;;;5008580;28;20120;-62
2023/05/07 11:14:06;;;;;;;22.65;17.77;;;;;;;;;;5006410;28;20488;-61
2023/05/07 11:16:33;;;;;;;23.25;17.77;;;;;;;;;;5012678;28;20029;-61
2023/05/07 11:18:59;;;;;;;24.50;17.83;;;;;;;;;;5012672;28;20045;-61
2023/05/07 11:21:43;;;;;;;23.02;17.95;;;;;;;;;;5011651;28;20074;-61
2023/05/07 11:24:10;;;;;;;23.63;18.23;;;;;;;;;;5005452;28;20104;-62
2023/05/07 11:26:44;;;;;;;22.10;18.13;;;;;;;;;;5011516;28;20094;-62
2023/05/07 11:29:17;;;;;;;21.42;18.08;;;;;;;;;;5005110;28;20026;-61
2023/05/07 11:31:44;;;;;;;23.95;19.60;;;;;;;;;;5009789;28;20528;-60
2023/05/07 11:34:10;;;;;;;23.58;19.00;;;;;;;;;;4994561;28;20025;-60
2023/05/07 11:36:36;;;;;;;22.98;18.42;;;;;;;;;;4992437;28;20033;-61
2023/05/07 11:39:02;;;;;;;21.27;17.98;;;;;;;;;;5010453;28;20022;-60
2023/05/07 11:41:37;;;;;;;23.60;17.30;;;;;;;;;;5012321;28;20029;-60
2023/05/07 11:44:04;;;;;;;21.92;18.23;;;;;;;;;;5011512;28;20026;-59
2023/05/07 11:46:31;;;;;;;21.60;17.75;;;;;;;;;;5006604;28;20034;-61
2023/05/07 11:48:57;;;;;;;21.13;17.58;;;;;;;;;;5011873;28;20033;-61
2023/05/07 11:51:25;;;;;;;21.00;17.10;;;;;;;;;;5026844;23;20048;-57
2023/05/07 11:53:51;;;;;;;22.30;18.70;;;;;;;;;;5003946;28;20037;-58
2023/05/07 11:56:18;;;;;;;24.15;20.80;;;;;;;;;;5011465;28;20037;-54
2023/05/07 11:58:45;;;;;;;19.98;16.63;;;;;;;;;;5012937;28;20030;-58
2023/05/07 12:01:33;;;;;;;24.23;16.38;;;;;;;;;;5012901;28;20028;-56
2023/05/07 12:03:59;;;;;;;19.25;16.13;;;;;;;;;;5011379;28;20041;-57
2023/05/07 12:06:25;;;;;;;20.10;16.58;;;;;;;;;;5011480;28;20099;-56
2023/05/07 12:08:51;;;;;;;19.65;16.13;;;;;;;;;;5003689;28;20041;-55
2023/05/07 12:11:22;;;;;;;20.08;15.82;;;;;;;;;;5010447;28;20032;-56
2023/05/07 12:13:48;;;;;;;21.15;15.52;;;;;;;;;;5020697;28;20092;-58
2023/05/07 12:16:36;;;;;;;18.70;15.38;;;;;;;;;;5012429;28;20030;-56
2023/05/07 12:19:02;;;;;;;;;;;;;;;;;;5012421;28;20026;-60
2023/05/07 12:21:46;;;;;;;18.80;16.30;;;;;;;;;;5012664;28;19905;-58
2023/05/07 12:24:14;;;;;;;20.75;17.85;;;;;;;;;;5012039;28;20096;-57
2023/05/07 12:29:46;;;;;;;19.48;16.70;;;;;;;;;;5012931;28;20029;-61
2023/05/07 12:32:15;;;;;;;20.15;16.83;;;;;;;;;;5011764;28;20021;-57
2023/05/07 12:34:42;;;;;;;20.58;17.48;;;;;;;;;;5012164;28;20021;-54
2023/05/07 12:40:11;;;;;;;20.80;16.10;;;;;;;;;;5012509;28;20567;-59
2023/05/07 12:42:38;;;;;;;22.05;16.42;;;;;;;;;;5012418;28;20029;-56
2023/05/07 12:45:11;;;;;;;20.13;16.75;;;;;;;;;;4994516;28;20414;-57
2023/05/07 12:50:41;;;;;;;19.88;17.27;;;;;;;;;;5012336;28;20025;-58
2023/05/07 12:53:07;;;;;;;20.10;16.92;;;;;;;;;;5011806;28;20034;-57
2023/05/07 12:55:41;;;;;;;19.88;16.77;;;;;;;;;;5011116;28;20026;-58
2023/05/07 12:58:07;;;;;;;19.40;16.92;;;;;;;;;;5012213;28;20022;-56
2023/05/07 13:00:43;;;;;;;20.58;17.33;;;;;;;;;;5012341;28;20458;-56
2023/05/07 13:03:09;;;;;;;18.80;16.67;;;;;;;;;;5011940;28;20034;-58
2023/05/07 13:05:35;;;;;;;20.23;17.60;;;;;;;;;;5011877;28;20071;-56
2023/05/07 13:08:01;;;;;;;19.80;17.25;;;;;;;;;;5012417;28;20022;-57
2023/05/07 13:10:28;;;;;;;19.13;17.02;;;;;;;;;;5012194;28;20032;-58
2023/05/07 13:12:54;;;;;;;20.23;16.58;;;;;;;;;;5012629;28;20032;-59
2023/05/07 13:15:20;;;;;;;19.33;16.30;;;;;;;;;;5011692;28;20497;-57
2023/05/07 13:17:46;;;;;;;20.30;16.58;;;;;;;;;;5012372;28;20029;-55
2023/05/07 13:20:12;;;;;;;19.17;16.23;;;;;;;;;;5011783;28;20025;-55
2023/05/07 13:22:38;;;;;;;21.08;16.38;;;;;;;;;;5011859;28;20485;-55
2023/05/07 13:25:05;;;;;;;19.27;16.75;;;;;;;;;;5011762;28;20030;-55
2023/05/07 13:27:56;;;;;;;21.40;16.73;;;;;;;;;;4994009;28;20061;-57
2023/05/07 13:30:21;;;;;;;22.00;15.60;;;;;;;;;;5011791;28;20101;-59
2023/05/07 13:32:48;;;;;;;21.30;16.60;;;;;;;;;;5011492;28;20121;-58
2023/05/07 13:35:14;;;;;;;20.30;16.90;;;;;;;;;;5011968;28;20025;-58
2023/05/07 13:37:40;;;;;;;20.05;16.63;;;;;;;;;;5011734;28;20109;-57
2023/05/07 13:40:07;;;;;;;20.75;16.40;;;;;;;;;;5011641;28;20114;-56
2023/05/07 13:42:33;;;;;;;20.27;16.45;;;;;;;;;;5011494;28;20037;-56
2023/05/07 13:45:00;;;;;;;19.70;16.05;;;;;;;;;;5011290;28;20030;-58
2023/05/07 13:47:26;;;;;;;19.00;15.57;;;;;;;;;;5011515;28;20033;-59
2023/05/07 13:49:52;;;;;;;22.05;16.52;;;;;;;;;;5011407;28;20354;-57
2023/05/07 13:52:18;;;;;;;20.42;16.23;;;;;;;;;;5011307;28;20049;-58
2023/05/07 13:54:44;;;;;;;20.88;17.65;;;;;;;;;;5010998;28;20529;-60
2023/05/07 13:57:10;;;;;;;20.27;17.27;;;;;;;;;;5011779;28;20026;-58
2023/05/07 13:59:36;;;;;;;20.58;16.85;;;;;;;;;;5011897;28;20211;-58
2023/05/07 14:05:05;;;;;;;19.85;16.83;;;;;;;;;;5011764;28;20084;-57
2023/05/07 14:07:31;;;;;;;20.05;16.33;;;;;;;;;;5014026;28;20125;-60
2023/05/07 14:09:58;;;;;;;20.92;16.63;;;;;;;;;;5015363;28;20030;-59
2023/05/07 14:15:27;;;;;;;19.17;15.82;;;;;;;;;;5015165;28;20021;-55
2023/05/07 14:17:53;;;;;;;18.88;15.40;;;;;;;;;;4997575;28;20116;-59
2023/05/07 14:20:19;;;;;;;19.17;15.73;;;;;;;;;;5015293;28;20014;-60
2023/05/07 14:22:45;;;;;;;18.95;15.82;;;;;;;;;;5015297;28;20478;-57
2023/05/07 14:25:11;;;;;;;18.63;15.15;;;;;;;;;;5014862;28;20053;-60
2023/05/07 14:27:37;;;;;;;18.55;15.43;;;;;;;;;;5015037;28;20052;-58
2023/05/07 14:30:04;;;;;;;19.10;15.00;;;;;;;;;;5015047;28;20072;-58
2023/05/07 14:35:33;;;;;;;19.75;15.50;;;;;;;;;;5014884;28;20029;-57
2023/05/07 14:37:59;;;;;;;20.00;15.18;;;;;;;;;;5014707;28;20030;-58
2023/05/07 14:40:25;;;;;;;19.38;15.13;;;;;;;;;;5012118;28;20030;-58
2023/05/07 14:42:51;;;;;;;19.98;14.75;;;;;;;;;;5013919;28;20018;-55
2023/05/07 14:45:17;;;;;;;20.33;16.30;;;;;;;;;;4663497;28;10000443;-57
2023/05/07 14:47:43;;;;;;;20.85;15.88;;;;;;;;;;5011138;28;20129;-57
2023/05/07 14:50:09;;;;;;;19.55;15.80;;;;;;;;;;5011036;28;20034;-56
2023/05/07 14:52:47;;;;;;;20.20;15.63;;;;;;;;;;5010793;28;20084;-57
2023/05/07 14:55:13;;;;;;;22.48;15.68;;;;;;;;;;5010955;28;20481;-57
2023/05/07 14:57:40;;;;;;;18.77;14.90;;;;;;;;;;4992837;28;20038;-57
2023/05/07 15:00:06;;;;;;;19.05;14.93;;;;;;;;;;5011227;28;20075;-59
2023/05/07 15:02:32;;;;;;;20.17;16.45;;;;;;;;;;5010922;28;20034;-58
2023/05/07 15:04:59;;;;;;;20.85;16.83;;;;;;;;;;5010729;28;20037;-55